Galena, Nevada Weather observations

Data are for 60 minute period ending nearest time listed.
 Day   Time    Ave.   Ave.  Ave.  Vector   Max.   Total    Solar   
  of    of     Air    Rel.  Wind   Wind    Wind  Precip.   Rad.    
Year   Day     Temp.  Hum.  Speed  Dir.    Gust                    
2026   (PST)    F      %     mph   deg.    mph     in.     W/m2    
------------------------------------------------------------------- 
 124    6:00   44.0    76    3.0   227      5.0    0.63      16  
 124    7:00   47.0    69    2.0    76      7.0    0.63      58  
 124    8:00   46.0    72    1.0   313      7.0    0.63      54  
 124    9:00   51.0    67    4.0   278      9.0    0.64     252  
 124   10:00   49.0    77    7.0   333     13.0    0.64     185  
 124   11:00   49.0    72    6.0   283     12.0    0.65     148  
 124   12:00   48.0    77    5.0   196     15.0    0.66     157  
 124   13:00   53.0    77    7.0   161     16.0    0.66     465  
 124   14:00   53.0    65    8.0   154     18.0    0.66     592  
 124   15:00   51.0    67    8.0   161     15.0    0.66     292  
 124   16:00   47.0    84    5.0   195     17.0    0.66     162  
 124   17:00   44.0    91    2.0   218     12.0    0.75      15  
 124   18:00   43.0    88   10.0   268     19.0    1.00       2  
 124   19:00   43.0    97    3.0    24     20.0    1.01       5  
 124   20:00   44.0    86   10.0   292     21.0    1.11       0  
 124   21:00   41.0    98    3.0   315     17.0    1.12       0  
 124   22:00   42.0    98    3.0   231      5.0    1.13       0  
 124   23:00   42.0    98    4.0   212      7.0    1.14       0  
 125    0:00   42.0    98    5.0   268      7.0    1.15       0  
 125    1:00   42.0    98    1.0    78      9.0    1.16       0  
 125    2:00   41.0    98    2.0   179      5.0    1.16       0  
 125    3:00   41.0    99    2.0   195      4.0    1.16       0  
 125    4:00   41.0    99    0.0   191      4.0    1.16       0  
 125    5:00   41.0    99    1.0   347      3.0    1.16       0  

Return to Galena, Nevada graphs page.


Western Regional Climate Center,wrcc@dri.edu